Flight Track Log - Related Links

Times and Time Zones

All times are in EDT time to prevent confusion due to time zone crossing. See the EGF4174 flight status page for this flight to view local times or setup timezone preferences in your user account.

Time Position Orientation Groundspeed Altitude Reporting Facility
EDT Latitude Longitude Course Direction KTS MPH feet Rate Location/Type
Mon 06:31:32 PM 43.1067 -76.0978 286° West 156 180 1,100  Level Boston Center
Mon 06:32:21 PM 43.1292 -76.0478 58° Northeast 211 243 2,800 1,927 Climbing Boston Center
Mon 06:33:00 PM 43.1757 -76.3272 295° West  Level FlightAware Approximate
Mon 06:33:21 PM 43.1733 -76.1017 318° Northwest 294 338 4,600  Level Boston Center
Mon 06:34:00 PM 43.1943 -76.4443 324° Northwest  Level FlightAware Approximate
Mon 06:34:22 PM 43.1786 -76.1931 275° West 242 278 7,500  Level Boston Center
Mon 06:35:00 PM 43.2094 -76.5660 281° West  Level FlightAware Approximate
Mon 06:36:00 PM 43.2322 -76.6889 286° West  Level FlightAware Approximate
Mon 06:36:29 PM 43.1833 -76.3833 272° West 280 322 10,600  Level Toronto Center
Mon 06:37:43 PM 43.2222 -76.5714 286° West 316 364 11,600 896 Climbing Cleveland Center
Mon 06:38:43 PM 43.2436 -76.7042 283° West 345 397 12,600 1,100 Climbing Cleveland Center
Mon 06:39:43 PM 43.2667 -76.8394 283° West 364 419 13,800 1,250 Climbing Cleveland Center
Mon 06:40:43 PM 43.2897 -76.9781 283° West 370 426 15,100 1,100 Climbing Cleveland Center
Mon 06:41:43 PM 43.3061 -77.0997 281° West 370 426 16,000 950 Climbing Cleveland Center
Mon 06:42:43 PM 43.3100 -77.2364 272° West 370 426 17,000 1,300 Climbing Cleveland Center
Mon 06:43:43 PM 43.3269 -77.3925 279° West 371 427 18,600 1,600 Climbing Cleveland Center
Mon 06:44:43 PM 43.3472 -77.5228 282° West 366 421 20,200 1,550 Climbing Cleveland Center
Mon 06:45:43 PM 43.3672 -77.6533 282° West 360 414 21,700 1,400 Climbing Cleveland Center
Mon 06:46:43 PM 43.3622 -77.7850 267° West 349 402 23,000 1,100 Climbing Cleveland Center
Mon 06:47:43 PM 43.3569 -77.9192 267° West 350 403 23,900 900 Climbing Cleveland Center
Mon 06:48:43 PM 43.3517 -78.0567 267° West 356 410 24,800 950 Climbing Cleveland Center
Mon 06:49:43 PM 43.3464 -78.1939 267° West 361 415 25,800 950 Climbing Cleveland Center
Mon 06:50:43 PM 43.3408 -78.3339 267° West 367 422 26,700 950 Climbing Cleveland Center
Mon 06:51:43 PM 43.3331 -78.4711 266° West 367 422 27,700 950 Climbing Cleveland Center
Mon 06:52:43 PM 43.3272 -78.6169 267° West 372 428 28,600 900 Climbing Cleveland Center
Mon 06:53:43 PM 43.3192 -78.7569 266° West 372 428 29,500 950 Climbing Cleveland Center
Mon 06:54:43 PM 43.3150 -78.8997 268° West 372 428 30,500 960 Climbing Cleveland Center
Mon 06:55:48 PM 43.3000 -79.0333 261° West 380 437 31,500 912 Climbing Toronto Center
Mon 06:56:48 PM 43.2833 -79.1833 261° West 380 437 32,400 1,250 Climbing Toronto Center
Mon 06:57:48 PM 43.2833 -79.3167 270° West 380 437 34,000 1,450 Climbing Toronto Center
Mon 06:58:48 PM 43.2667 -79.4500 260° West 360 414 35,300 1,000 Climbing Toronto Center
Mon 06:59:48 PM 43.2667 -79.6167 270° West 360 414 36,000 350 Climbing Toronto Center
Mon 07:00:48 PM 43.2500 -79.7167 257° West 370 426 36,000  Level Toronto Center
Mon 07:01:48 PM 43.2500 -79.8833 270° West 390 449 36,000  Level Toronto Center
Mon 07:02:48 PM 43.2333 -80.0500 262° West 410 472 36,000  Level Toronto Center
Mon 07:03:48 PM 43.2333 -80.2000 270° West 410 472 36,000  Level Toronto Center
Mon 07:04:48 PM 43.2167 -80.3667 262° West 410 472 36,000  Level Toronto Center
Mon 07:05:48 PM 43.2167 -80.5000 270° West 410 472 36,000  Level Toronto Center
Mon 07:06:48 PM 43.2000 -80.6833 263° West 410 472 36,000  Level Toronto Center
Mon 07:07:48 PM 43.1833 -80.8167 260° West 420 483 36,000  Level Toronto Center
Mon 07:08:48 PM 43.1667 -81.0000 263° West 420 483 36,000  Level Toronto Center
Mon 07:09:48 PM 43.1667 -81.1500 270° West 420 483 36,000  Level Toronto Center
Mon 07:10:48 PM 43.1500 -81.3167 262° West 420 483 36,000  Level Toronto Center
Mon 07:11:48 PM 43.1333 -81.4833 262° West 420 483 36,000  Level Toronto Center
Mon 07:12:48 PM 43.1333 -81.6500 270° West 420 483 36,000  Level Toronto Center
Mon 07:13:48 PM 43.1167 -81.8000 261° West 420 483 36,000  Level Toronto Center
Mon 07:14:48 PM 43.1000 -81.9667 262° West 430 495 36,000  Level Toronto Center
Mon 07:15:48 PM 43.0833 -82.1167 261° West 430 495 36,000  Level Toronto Center
Mon 07:16:48 PM 43.0833 -82.2833 270° West 420 483 36,000  Level Toronto Center
Mon 07:17:48 PM 43.0667 -82.4333 261° West 420 483 36,000 -150 Level Toronto Center
Mon 07:18:48 PM 43.0667 -82.6000 270° West 420 483 35,700 -709 Descending Toronto Center
Mon 07:19:55 PM 43.0522 -82.7681 263° West 425 489 34,500 -1,276 Descending Cleveland Center
Mon 07:20:55 PM 43.0386 -82.9322 264° West 425 489 33,000 -1,250 Descending Cleveland Center
Mon 07:21:55 PM 43.0247 -83.0994 264° West 438 504 32,000 -500 Descending Cleveland Center
Mon 07:22:55 PM 43.0078 -83.2889 263° West 452 520 32,000  Level Cleveland Center
Mon 07:23:55 PM 42.9933 -83.4586 263° West 457 526 32,000  Level Cleveland Center
Mon 07:24:55 PM 42.9786 -83.6283 263° West 457 526 32,000  Level Cleveland Center
Mon 07:25:55 PM 42.9614 -83.8006 262° West 463 533 32,000  Level Cleveland Center
Mon 07:26:55 PM 42.9442 -83.9669 262° West 463 533 32,000  Level Cleveland Center
Mon 07:27:55 PM 42.9286 -84.1336 263° West 463 533 32,000 -179 Level Cleveland Center
Mon 07:29:09 PM 42.9125 -84.3122 263° West 448 516 31,600 -838 Descending Chicago Center
Mon 07:30:11 PM 42.8925 -84.5150 262° West 450 518 30,100 -774 Descending Chicago Center
Mon 07:31:13 PM 42.8744 -84.6814 262° West 447 514 30,000 -48 Descending Chicago Center
Mon 07:32:15 PM 42.8572 -84.8453 262° West 440 506 30,000  Level Chicago Center
Mon 07:33:17 PM 42.8403 -85.0053 262° West 433 498 30,000 -194 Level Chicago Center
Mon 07:34:19 PM 42.8236 -85.1631 262° West 424 488 29,600 -629 Descending Chicago Center
Mon 07:35:21 PM 42.8069 -85.3131 261° West 408 470 28,700 -919 Descending Chicago Center
Mon 07:36:23 PM 42.7911 -85.4561 261° West 391 450 27,700 -1,065 Descending Chicago Center
Mon 07:37:25 PM 42.7647 -85.6222 258° West 376 433 26,500 -823 Descending Chicago Center
Mon 07:38:27 PM 42.7400 -85.7569 256° West 368 423 26,000 -1,161 Descending Chicago Center
Mon 07:39:29 PM 42.7139 -85.8997 256° West 382 440 24,100 -1,887 Descending Chicago Center
Mon 07:40:31 PM 42.6867 -86.0492 256° West 401 461 22,100 -1,790 Descending Chicago Center
Mon 07:41:33 PM 42.6603 -86.1928 256° West 392 451 20,400 -1,016 Descending Chicago Center
Mon 07:42:35 PM 42.6339 -86.3372 256° West 392 451 20,000 -194 Descending Chicago Center
Mon 07:43:37 PM 42.6058 -86.4833 255° West 398 458 20,000 -1,065 Level Chicago Center
Mon 07:44:39 PM 42.5722 -86.6608 256° West 404 465 17,800 -2,352 Descending Chicago Center
Mon 07:45:42 PM 42.5431 -86.8003 254° West 388 447 15,100 -2,736 Descending Chicago Center
Mon 07:46:44 PM 42.5061 -86.9286 249° West 371 427 12,100 -2,419 Descending Chicago Center
Mon 07:47:46 PM 42.4706 -87.0533 249° West 358 412 10,100 -1,113 Descending Chicago Center
Mon 07:48:48 PM 42.4386 -87.1700 250° West 332 382 9,800 -532 Descending Chicago Center
Mon 07:49:50 PM 42.4114 -87.2703 250° West 290 334 9,000 -677 Descending Chicago Center
Mon 07:50:52 PM 42.3733 -87.3894 247° West 291 335 8,400 -774 Descending Chicago Center
Mon 07:51:54 PM 42.3361 -87.4867 243° Southwest 279 321 7,400 -677 Descending Chicago Center
Mon 07:52:56 PM 42.2906 -87.5717 234° Southwest 277 319 7,000 -387 Descending Chicago Center
Mon 07:53:58 PM 42.2297 -87.6386 219° Southwest 284 327 6,600 -387 Descending Chicago Center

Login

Don't have an account? Register now (free) for customized features, flight alerts, and more!